sensor_id;sensor_type;location;lat;lon;timestamp;P1;durP1;ratioP1;P2;durP2;ratioP2
55465;SDS011;41329;41.594;23.810;2023-12-14T00:00:18;43.00;;;28.80;;
55465;SDS011;41329;41.594;23.810;2023-12-14T00:02:44;53.83;;;35.97;;
55465;SDS011;41329;41.594;23.810;2023-12-14T00:05:09;56.97;;;34.67;;
55465;SDS011;41329;41.594;23.810;2023-12-14T00:07:35;55.40;;;35.77;;
55465;SDS011;41329;41.594;23.810;2023-12-14T00:10:01;68.07;;;40.77;;
55465;SDS011;41329;41.594;23.810;2023-12-14T00:12:26;50.80;;;33.80;;
55465;SDS011;41329;41.594;23.810;2023-12-14T00:14:52;40.97;;;28.60;;
55465;SDS011;41329;41.594;23.810;2023-12-14T00:17:17;58.73;;;34.50;;
55465;SDS011;41329;41.594;23.810;2023-12-14T00:19:42;59.60;;;37.93;;
55465;SDS011;41329;41.594;23.810;2023-12-14T00:22:08;60.27;;;38.57;;
55465;SDS011;41329;41.594;23.810;2023-12-14T00:24:33;61.93;;;39.40;;
55465;SDS011;41329;41.594;23.810;2023-12-14T00:26:59;62.10;;;41.50;;
55465;SDS011;41329;41.594;23.810;2023-12-14T00:29:24;53.57;;;37.00;;
55465;SDS011;41329;41.594;23.810;2023-12-14T00:31:50;55.87;;;36.90;;
55465;SDS011;41329;41.594;23.810;2023-12-14T00:34:15;57.27;;;38.13;;
55465;SDS011;41329;41.594;23.810;2023-12-14T00:36:41;55.30;;;37.93;;
55465;SDS011;41329;41.594;23.810;2023-12-14T00:39:06;66.13;;;40.20;;
55465;SDS011;41329;41.594;23.810;2023-12-14T00:41:31;50.33;;;34.40;;
55465;SDS011;41329;41.594;23.810;2023-12-14T00:43:57;57.73;;;33.77;;
55465;SDS011;41329;41.594;23.810;2023-12-14T00:46:22;32.40;;;24.60;;
55465;SDS011;41329;41.594;23.810;2023-12-14T00:48:48;38.23;;;28.77;;
55465;SDS011;41329;41.594;23.810;2023-12-14T00:51:13;43.13;;;29.60;;
55465;SDS011;41329;41.594;23.810;2023-12-14T00:53:39;46.17;;;31.60;;
55465;SDS011;41329;41.594;23.810;2023-12-14T00:56:06;47.60;;;30.90;;
55465;SDS011;41329;41.594;23.810;2023-12-14T00:58:33;44.97;;;29.40;;
55465;SDS011;41329;41.594;23.810;2023-12-14T01:00:58;47.30;;;31.03;;
55465;SDS011;41329;41.594;23.810;2023-12-14T01:03:24;63.23;;;37.07;;
55465;SDS011;41329;41.594;23.810;2023-12-14T01:05:49;53.40;;;34.43;;
55465;SDS011;41329;41.594;23.810;2023-12-14T01:08:15;56.90;;;34.63;;
55465;SDS011;41329;41.594;23.810;2023-12-14T01:10:40;46.67;;;30.43;;
55465;SDS011;41329;41.594;23.810;2023-12-14T01:13:06;44.10;;;30.13;;
55465;SDS011;41329;41.594;23.810;2023-12-14T01:15:31;67.37;;;39.40;;
55465;SDS011;41329;41.594;23.810;2023-12-14T01:17:57;85.13;;;41.97;;
55465;SDS011;41329;41.594;23.810;2023-12-14T01:20:22;90.63;;;48.13;;
55465;SDS011;41329;41.594;23.810;2023-12-14T01:22:48;91.57;;;49.03;;
55465;SDS011;41329;41.594;23.810;2023-12-14T01:25:13;91.13;;;46.80;;
55465;SDS011;41329;41.594;23.810;2023-12-14T01:27:39;106.13;;;54.43;;
55465;SDS011;41329;41.594;23.810;2023-12-14T01:30:05;86.83;;;46.20;;
55465;SDS011;41329;41.594;23.810;2023-12-14T01:32:31;75.57;;;42.93;;
55465;SDS011;41329;41.594;23.810;2023-12-14T01:34:56;87.93;;;47.47;;
55465;SDS011;41329;41.594;23.810;2023-12-14T01:37:22;76.53;;;42.27;;
55465;SDS011;41329;41.594;23.810;2023-12-14T01:39:47;65.97;;;40.93;;
55465;SDS011;41329;41.594;23.810;2023-12-14T01:42:13;55.60;;;35.40;;
55465;SDS011;41329;41.594;23.810;2023-12-14T01:44:38;63.53;;;38.83;;
55465;SDS011;41329;41.594;23.810;2023-12-14T01:47:04;72.40;;;41.53;;
55465;SDS011;41329;41.594;23.810;2023-12-14T01:49:29;80.57;;;45.37;;
55465;SDS011;41329;41.594;23.810;2023-12-14T01:51:55;76.50;;;44.70;;
55465;SDS011;41329;41.594;23.810;2023-12-14T01:54:20;69.30;;;41.33;;
55465;SDS011;41329;41.594;23.810;2023-12-14T01:56:46;78.60;;;44.73;;
55465;SDS011;41329;41.594;23.810;2023-12-14T01:59:12;73.53;;;45.77;;
55465;SDS011;41329;41.594;23.810;2023-12-14T02:04:13;64.10;;;40.43;;
55465;SDS011;41329;41.594;23.810;2023-12-14T02:06:39;56.10;;;36.80;;
55465;SDS011;41329;41.594;23.810;2023-12-14T02:09:05;59.03;;;36.47;;
55465;SDS011;41329;41.594;23.810;2023-12-14T02:11:31;57.73;;;36.73;;
55465;SDS011;41329;41.594;23.810;2023-12-14T02:13:56;56.00;;;35.80;;
55465;SDS011;41329;41.594;23.810;2023-12-14T02:16:22;54.07;;;33.93;;
55465;SDS011;41329;41.594;23.810;2023-12-14T02:18:47;57.27;;;36.30;;
55465;SDS011;41329;41.594;23.810;2023-12-14T02:21:13;53.87;;;35.73;;
55465;SDS011;41329;41.594;23.810;2023-12-14T02:23:43;59.90;;;37.30;;
55465;SDS011;41329;41.594;23.810;2023-12-14T02:26:09;61.10;;;36.97;;
55465;SDS011;41329;41.594;23.810;2023-12-14T02:28:34;50.37;;;33.70;;
55465;SDS011;41329;41.594;23.810;2023-12-14T02:31:00;43.33;;;29.30;;
55465;SDS011;41329;41.594;23.810;2023-12-14T02:33:25;42.53;;;28.60;;
55465;SDS011;41329;41.594;23.810;2023-12-14T02:35:51;40.30;;;27.90;;
55465;SDS011;41329;41.594;23.810;2023-12-14T02:38:17;51.17;;;32.10;;
55465;SDS011;41329;41.594;23.810;2023-12-14T02:40:42;57.13;;;36.10;;
55465;SDS011;41329;41.594;23.810;2023-12-14T02:43:07;56.07;;;37.30;;
55465;SDS011;41329;41.594;23.810;2023-12-14T02:45:33;58.47;;;37.87;;
55465;SDS011;41329;41.594;23.810;2023-12-14T02:47:58;77.87;;;42.90;;
55465;SDS011;41329;41.594;23.810;2023-12-14T02:50:24;90.83;;;42.47;;
55465;SDS011;41329;41.594;23.810;2023-12-14T02:52:49;150.17;;;46.67;;
55465;SDS011;41329;41.594;23.810;2023-12-14T02:55:15;93.67;;;44.10;;
55465;SDS011;41329;41.594;23.810;2023-12-14T02:57:40;242.30;;;50.93;;
55465;SDS011;41329;41.594;23.810;2023-12-14T03:00:06;122.40;;;44.23;;
55465;SDS011;41329;41.594;23.810;2023-12-14T03:02:32;89.77;;;47.03;;
55465;SDS011;41329;41.594;23.810;2023-12-14T03:04:57;165.87;;;49.80;;
55465;SDS011;41329;41.594;23.810;2023-12-14T03:07:23;94.60;;;45.43;;
55465;SDS011;41329;41.594;23.810;2023-12-14T03:09:48;75.40;;;45.60;;
55465;SDS011;41329;41.594;23.810;2023-12-14T03:12:14;152.43;;;45.70;;
55465;SDS011;41329;41.594;23.810;2023-12-14T03:14:39;117.63;;;53.63;;
55465;SDS011;41329;41.594;23.810;2023-12-14T03:17:06;129.83;;;53.00;;
55465;SDS011;41329;41.594;23.810;2023-12-14T03:19:32;110.50;;;50.63;;
55465;SDS011;41329;41.594;23.810;2023-12-14T03:21:57;222.97;;;50.27;;
55465;SDS011;41329;41.594;23.810;2023-12-14T03:24:23;112.17;;;43.03;;
55465;SDS011;41329;41.594;23.810;2023-12-14T03:26:48;104.40;;;40.93;;
55465;SDS011;41329;41.594;23.810;2023-12-14T03:29:14;101.73;;;48.43;;
55465;SDS011;41329;41.594;23.810;2023-12-14T03:31:39;91.27;;;44.43;;
55465;SDS011;41329;41.594;23.810;2023-12-14T03:34:05;70.20;;;39.03;;
55465;SDS011;41329;41.594;23.810;2023-12-14T03:36:30;44.97;;;30.03;;
55465;SDS011;41329;41.594;23.810;2023-12-14T03:38:56;53.53;;;31.83;;
55465;SDS011;41329;41.594;23.810;2023-12-14T03:41:21;59.77;;;34.97;;
55465;SDS011;41329;41.594;23.810;2023-12-14T03:43:47;60.63;;;37.40;;
55465;SDS011;41329;41.594;23.810;2023-12-14T03:46:12;70.30;;;39.53;;
55465;SDS011;41329;41.594;23.810;2023-12-14T03:48:38;84.30;;;41.90;;
55465;SDS011;41329;41.594;23.810;2023-12-14T03:51:04;128.10;;;48.47;;
55465;SDS011;41329;41.594;23.810;2023-12-14T03:53:30;100.67;;;50.13;;
55465;SDS011;41329;41.594;23.810;2023-12-14T03:55:56;125.50;;;57.67;;
55465;SDS011;41329;41.594;23.810;2023-12-14T03:58:25;138.57;;;59.50;;
55465;SDS011;41329;41.594;23.810;2023-12-14T04:00:51;128.50;;;59.40;;
55465;SDS011;41329;41.594;23.810;2023-12-14T04:03:17;134.30;;;55.70;;
55465;SDS011;41329;41.594;23.810;2023-12-14T04:05:42;93.93;;;52.10;;
55465;SDS011;41329;41.594;23.810;2023-12-14T04:08:09;112.40;;;54.00;;
55465;SDS011;41329;41.594;23.810;2023-12-14T04:10:35;112.23;;;58.00;;
55465;SDS011;41329;41.594;23.810;2023-12-14T04:13:00;97.57;;;47.17;;
55465;SDS011;41329;41.594;23.810;2023-12-14T04:15:26;116.13;;;55.23;;
55465;SDS011;41329;41.594;23.810;2023-12-14T04:17:51;82.27;;;43.40;;
55465;SDS011;41329;41.594;23.810;2023-12-14T04:20:17;67.13;;;39.00;;
55465;SDS011;41329;41.594;23.810;2023-12-14T04:22:43;47.17;;;31.27;;
55465;SDS011;41329;41.594;23.810;2023-12-14T04:25:09;41.20;;;28.27;;
55465;SDS011;41329;41.594;23.810;2023-12-14T04:27:34;72.40;;;43.10;;
55465;SDS011;41329;41.594;23.810;2023-12-14T04:30:00;69.23;;;42.43;;
55465;SDS011;41329;41.594;23.810;2023-12-14T04:32:26;58.57;;;37.43;;
55465;SDS011;41329;41.594;23.810;2023-12-14T04:34:52;47.17;;;33.70;;
55465;SDS011;41329;41.594;23.810;2023-12-14T04:37:17;54.87;;;36.37;;
55465;SDS011;41329;41.594;23.810;2023-12-14T04:39:43;87.10;;;49.90;;
55465;SDS011;41329;41.594;23.810;2023-12-14T04:42:09;106.77;;;51.60;;
55465;SDS011;41329;41.594;23.810;2023-12-14T04:44:34;153.67;;;38.23;;
55465;SDS011;41329;41.594;23.810;2023-12-14T04:47:00;105.20;;;33.63;;
55465;SDS011;41329;41.594;23.810;2023-12-14T04:49:25;63.80;;;33.00;;
55465;SDS011;41329;41.594;23.810;2023-12-14T04:51:51;47.13;;;28.83;;
55465;SDS011;41329;41.594;23.810;2023-12-14T04:54:16;82.93;;;35.37;;
55465;SDS011;41329;41.594;23.810;2023-12-14T04:56:45;65.17;;;36.40;;
55465;SDS011;41329;41.594;23.810;2023-12-14T04:59:11;46.50;;;31.77;;
55465;SDS011;41329;41.594;23.810;2023-12-14T05:01:36;101.13;;;30.53;;
55465;SDS011;41329;41.594;23.810;2023-12-14T05:04:02;43.37;;;29.33;;
55465;SDS011;41329;41.594;23.810;2023-12-14T05:06:28;115.57;;;39.47;;
55465;SDS011;41329;41.594;23.810;2023-12-14T05:08:54;70.40;;;38.20;;
55465;SDS011;41329;41.594;23.810;2023-12-14T05:11:19;93.23;;;36.87;;
55465;SDS011;41329;41.594;23.810;2023-12-14T05:13:45;75.83;;;36.03;;
55465;SDS011;41329;41.594;23.810;2023-12-14T05:16:14;72.00;;;30.87;;
55465;SDS011;41329;41.594;23.810;2023-12-14T05:18:40;54.15;;;30.15;;
55465;SDS011;41329;41.594;23.810;2023-12-14T05:21:05;52.70;;;29.47;;
55465;SDS011;41329;41.594;23.810;2023-12-14T05:23:31;79.77;;;33.03;;
55465;SDS011;41329;41.594;23.810;2023-12-14T05:25:56;66.73;;;31.60;;
55465;SDS011;41329;41.594;23.810;2023-12-14T05:28:22;64.10;;;34.63;;
55465;SDS011;41329;41.594;23.810;2023-12-14T05:30:48;79.73;;;40.97;;
55465;SDS011;41329;41.594;23.810;2023-12-14T05:33:13;156.40;;;50.30;;
55465;SDS011;41329;41.594;23.810;2023-12-14T05:35:39;75.20;;;38.10;;
55465;SDS011;41329;41.594;23.810;2023-12-14T05:38:04;103.97;;;37.67;;
55465;SDS011;41329;41.594;23.810;2023-12-14T05:40:30;87.47;;;40.23;;
55465;SDS011;41329;41.594;23.810;2023-12-14T05:42:56;75.93;;;34.80;;
55465;SDS011;41329;41.594;23.810;2023-12-14T05:45:22;68.50;;;33.97;;
55465;SDS011;41329;41.594;23.810;2023-12-14T05:47:47;107.07;;;37.97;;
55465;SDS011;41329;41.594;23.810;2023-12-14T05:50:13;59.60;;;32.97;;
55465;SDS011;41329;41.594;23.810;2023-12-14T05:52:38;100.87;;;37.90;;
55465;SDS011;41329;41.594;23.810;2023-12-14T05:55:07;65.60;;;37.70;;
55465;SDS011;41329;41.594;23.810;2023-12-14T05:57:35;114.28;;;45.22;;
55465;SDS011;41329;41.594;23.810;2023-12-14T06:00:01;102.77;;;44.83;;
55465;SDS011;41329;41.594;23.810;2023-12-14T06:02:26;128.47;;;40.00;;
55465;SDS011;41329;41.594;23.810;2023-12-14T06:04:52;96.10;;;36.77;;
55465;SDS011;41329;41.594;23.810;2023-12-14T06:07:18;132.87;;;49.93;;
55465;SDS011;41329;41.594;23.810;2023-12-14T06:09:43;105.23;;;54.37;;
55465;SDS011;41329;41.594;23.810;2023-12-14T06:12:09;367.03;;;62.93;;
55465;SDS011;41329;41.594;23.810;2023-12-14T06:14:34;249.07;;;65.20;;
55465;SDS011;41329;41.594;23.810;2023-12-14T06:17:00;159.27;;;64.13;;
55465;SDS011;41329;41.594;23.810;2023-12-14T06:19:25;162.93;;;68.43;;
55465;SDS011;41329;41.594;23.810;2023-12-14T06:21:51;172.63;;;59.67;;
55465;SDS011;41329;41.594;23.810;2023-12-14T06:24:17;187.90;;;64.47;;
55465;SDS011;41329;41.594;23.810;2023-12-14T06:26:46;201.40;;;70.00;;
55465;SDS011;41329;41.594;23.810;2023-12-14T06:29:11;287.83;;;79.80;;
55465;SDS011;41329;41.594;23.810;2023-12-14T06:31:38;266.53;;;84.03;;
55465;SDS011;41329;41.594;23.810;2023-12-14T06:34:04;182.10;;;64.57;;
55465;SDS011;41329;41.594;23.810;2023-12-14T06:36:31;237.13;;;54.20;;
55465;SDS011;41329;41.594;23.810;2023-12-14T06:39:00;139.27;;;49.80;;
55465;SDS011;41329;41.594;23.810;2023-12-14T06:41:26;196.32;;;58.20;;
55465;SDS011;41329;41.594;23.810;2023-12-14T06:43:53;221.40;;;53.43;;
55465;SDS011;41329;41.594;23.810;2023-12-14T06:46:19;174.70;;;56.37;;
55465;SDS011;41329;41.594;23.810;2023-12-14T06:48:44;133.27;;;56.03;;
55465;SDS011;41329;41.594;23.810;2023-12-14T06:51:10;200.87;;;64.10;;
55465;SDS011;41329;41.594;23.810;2023-12-14T06:53:38;117.57;;;54.30;;
55465;SDS011;41329;41.594;23.810;2023-12-14T06:56:05;181.33;;;63.87;;
55465;SDS011;41329;41.594;23.810;2023-12-14T06:58:34;154.60;;;63.70;;
55465;SDS011;41329;41.594;23.810;2023-12-14T07:01:00;102.90;;;54.37;;
55465;SDS011;41329;41.594;23.810;2023-12-14T07:03:26;105.30;;;50.13;;
55465;SDS011;41329;41.594;23.810;2023-12-14T07:05:51;116.77;;;48.60;;
55465;SDS011;41329;41.594;23.810;2023-12-14T07:08:16;72.87;;;44.13;;
55465;SDS011;41329;41.594;23.810;2023-12-14T07:10:42;110.47;;;51.47;;
55465;SDS011;41329;41.594;23.810;2023-12-14T07:13:07;109.83;;;51.83;;
55465;SDS011;41329;41.594;23.810;2023-12-14T07:15:33;115.57;;;57.77;;
55465;SDS011;41329;41.594;23.810;2023-12-14T07:17:59;129.23;;;49.97;;
55465;SDS011;41329;41.594;23.810;2023-12-14T07:20:24;82.03;;;44.20;;
55465;SDS011;41329;41.594;23.810;2023-12-14T07:22:50;85.17;;;42.37;;
55465;SDS011;41329;41.594;23.810;2023-12-14T07:25:15;83.90;;;41.33;;
55465;SDS011;41329;41.594;23.810;2023-12-14T07:27:41;106.50;;;48.73;;
55465;SDS011;41329;41.594;23.810;2023-12-14T07:30:08;109.60;;;45.07;;
55465;SDS011;41329;41.594;23.810;2023-12-14T07:32:34;147.60;;;44.30;;
55465;SDS011;41329;41.594;23.810;2023-12-14T07:35:00;86.57;;;42.70;;
55465;SDS011;41329;41.594;23.810;2023-12-14T07:37:25;136.90;;;44.47;;
55465;SDS011;41329;41.594;23.810;2023-12-14T07:39:51;136.13;;;43.17;;
55465;SDS011;41329;41.594;23.810;2023-12-14T07:42:17;222.23;;;50.73;;
55465;SDS011;41329;41.594;23.810;2023-12-14T07:44:45;155.33;;;53.17;;
55465;SDS011;41329;41.594;23.810;2023-12-14T07:47:11;176.30;;;48.17;;
55465;SDS011;41329;41.594;23.810;2023-12-14T07:49:36;94.90;;;43.67;;
55465;SDS011;41329;41.594;23.810;2023-12-14T07:52:02;76.80;;;40.63;;
55465;SDS011;41329;41.594;23.810;2023-12-14T07:54:27;133.90;;;40.60;;
55465;SDS011;41329;41.594;23.810;2023-12-14T07:56:54;238.27;;;46.90;;
55465;SDS011;41329;41.594;23.810;2023-12-14T07:59:19;132.37;;;43.77;;
55465;SDS011;41329;41.594;23.810;2023-12-14T08:01:45;148.03;;;34.20;;
55465;SDS011;41329;41.594;23.810;2023-12-14T08:04:11;148.00;;;34.97;;
55465;SDS011;41329;41.594;23.810;2023-12-14T08:06:37;124.63;;;35.57;;
55465;SDS011;41329;41.594;23.810;2023-12-14T08:09:04;80.53;;;30.53;;
55465;SDS011;41329;41.594;23.810;2023-12-14T08:11:30;186.50;;;37.43;;
55465;SDS011;41329;41.594;23.810;2023-12-14T08:13:56;73.37;;;31.60;;
55465;SDS011;41329;41.594;23.810;2023-12-14T08:16:22;134.53;;;35.70;;
55465;SDS011;41329;41.594;23.810;2023-12-14T08:18:47;51.50;;;29.23;;
55465;SDS011;41329;41.594;23.810;2023-12-14T08:21:13;171.40;;;36.77;;
55465;SDS011;41329;41.594;23.810;2023-12-14T08:23:39;119.50;;;36.53;;
55465;SDS011;41329;41.594;23.810;2023-12-14T08:26:05;130.13;;;53.93;;
55465;SDS011;41329;41.594;23.810;2023-12-14T08:28:33;110.10;;;31.63;;
55465;SDS011;41329;41.594;23.810;2023-12-14T08:30:58;97.90;;;30.00;;
55465;SDS011;41329;41.594;23.810;2023-12-14T08:33:27;69.40;;;29.37;;
55465;SDS011;41329;41.594;23.810;2023-12-14T08:35:52;125.63;;;29.73;;
55465;SDS011;41329;41.594;23.810;2023-12-14T08:38:18;77.67;;;29.70;;
55465;SDS011;41329;41.594;23.810;2023-12-14T08:40:43;69.67;;;32.30;;
55465;SDS011;41329;41.594;23.810;2023-12-14T08:43:09;75.33;;;34.03;;
55465;SDS011;41329;41.594;23.810;2023-12-14T08:45:34;76.40;;;33.40;;
55465;SDS011;41329;41.594;23.810;2023-12-14T08:47:59;185.53;;;40.97;;
55465;SDS011;41329;41.594;23.810;2023-12-14T08:50:25;79.70;;;39.77;;
55465;SDS011;41329;41.594;23.810;2023-12-14T08:52:53;98.87;;;38.37;;
55465;SDS011;41329;41.594;23.810;2023-12-14T08:55:19;100.13;;;37.60;;
55465;SDS011;41329;41.594;23.810;2023-12-14T08:57:44;158.33;;;41.87;;
55465;SDS011;41329;41.594;23.810;2023-12-14T09:00:10;117.33;;;38.47;;
55465;SDS011;41329;41.594;23.810;2023-12-14T09:02:36;140.47;;;46.43;;
55465;SDS011;41329;41.594;23.810;2023-12-14T09:05:01;87.23;;;40.17;;
55465;SDS011;41329;41.594;23.810;2023-12-14T09:07:27;109.63;;;42.60;;
55465;SDS011;41329;41.594;23.810;2023-12-14T09:09:53;117.67;;;40.83;;
55465;SDS011;41329;41.594;23.810;2023-12-14T09:12:19;147.73;;;45.40;;
55465;SDS011;41329;41.594;23.810;2023-12-14T09:14:44;89.47;;;35.23;;
55465;SDS011;41329;41.594;23.810;2023-12-14T09:17:10;116.43;;;38.20;;
55465;SDS011;41329;41.594;23.810;2023-12-14T09:19:35;139.13;;;37.63;;
55465;SDS011;41329;41.594;23.810;2023-12-14T09:22:01;88.00;;;36.70;;
55465;SDS011;41329;41.594;23.810;2023-12-14T09:24:26;147.10;;;39.50;;
55465;SDS011;41329;41.594;23.810;2023-12-14T09:26:52;82.57;;;35.73;;
55465;SDS011;41329;41.594;23.810;2023-12-14T09:29:17;121.30;;;44.33;;
55465;SDS011;41329;41.594;23.810;2023-12-14T09:31:43;88.27;;;42.17;;
55465;SDS011;41329;41.594;23.810;2023-12-14T09:34:10;78.90;;;36.50;;
55465;SDS011;41329;41.594;23.810;2023-12-14T09:36:36;89.53;;;36.17;;
55465;SDS011;41329;41.594;23.810;2023-12-14T09:39:02;86.30;;;37.47;;
55465;SDS011;41329;41.594;23.810;2023-12-14T09:41:28;103.67;;;50.60;;
55465;SDS011;41329;41.594;23.810;2023-12-14T09:43:54;106.47;;;43.63;;
55465;SDS011;41329;41.594;23.810;2023-12-14T09:46:20;103.80;;;46.30;;
55465;SDS011;41329;41.594;23.810;2023-12-14T09:48:47;103.87;;;42.83;;
55465;SDS011;41329;41.594;23.810;2023-12-14T09:51:14;139.70;;;43.73;;
55465;SDS011;41329;41.594;23.810;2023-12-14T09:53:41;91.23;;;44.17;;
55465;SDS011;41329;41.594;23.810;2023-12-14T09:56:06;111.13;;;45.27;;
55465;SDS011;41329;41.594;23.810;2023-12-14T09:58:32;92.90;;;43.23;;
55465;SDS011;41329;41.594;23.810;2023-12-14T10:00:58;100.33;;;43.20;;
55465;SDS011;41329;41.594;23.810;2023-12-14T10:03:26;90.07;;;46.60;;
55465;SDS011;41329;41.594;23.810;2023-12-14T10:05:54;109.33;;;47.97;;
55465;SDS011;41329;41.594;23.810;2023-12-14T10:08:20;125.63;;;52.50;;
55465;SDS011;41329;41.594;23.810;2023-12-14T10:10:48;89.23;;;43.47;;
55465;SDS011;41329;41.594;23.810;2023-12-14T10:13:16;101.37;;;39.37;;
55465;SDS011;41329;41.594;23.810;2023-12-14T10:15:42;77.60;;;38.27;;
55465;SDS011;41329;41.594;23.810;2023-12-14T10:18:08;124.23;;;53.00;;
55465;SDS011;41329;41.594;23.810;2023-12-14T10:20:34;76.53;;;42.13;;
55465;SDS011;41329;41.594;23.810;2023-12-14T10:22:59;93.27;;;49.20;;
55465;SDS011;41329;41.594;23.810;2023-12-14T10:25:25;103.13;;;54.80;;
55465;SDS011;41329;41.594;23.810;2023-12-14T10:27:51;97.20;;;46.50;;
55465;SDS011;41329;41.594;23.810;2023-12-14T10:30:19;113.57;;;50.03;;
55465;SDS011;41329;41.594;23.810;2023-12-14T10:32:48;119.10;;;53.77;;
55465;SDS011;41329;41.594;23.810;2023-12-14T10:35:14;85.30;;;44.27;;
55465;SDS011;41329;41.594;23.810;2023-12-14T10:40:11;88.40;;;45.87;;
55465;SDS011;41329;41.594;23.810;2023-12-14T10:42:39;101.83;;;53.13;;
55465;SDS011;41329;41.594;23.810;2023-12-14T10:45:08;96.87;;;49.90;;
55465;SDS011;41329;41.594;23.810;2023-12-14T10:47:44;96.33;;;51.23;;
55465;SDS011;41329;41.594;23.810;2023-12-14T10:50:11;119.72;;;64.90;;
55465;SDS011;41329;41.594;23.810;2023-12-14T10:52:40;81.47;;;44.90;;
55465;SDS011;41329;41.594;23.810;2023-12-14T10:57:38;72.97;;;43.10;;
55465;SDS011;41329;41.594;23.810;2023-12-14T11:00:05;72.13;;;42.87;;
55465;SDS011;41329;41.594;23.810;2023-12-14T11:02:40;79.27;;;46.97;;
55465;SDS011;41329;41.594;23.810;2023-12-14T11:05:08;62.07;;;39.80;;
55465;SDS011;41329;41.594;23.810;2023-12-14T11:07:46;68.53;;;39.30;;
55465;SDS011;41329;41.594;23.810;2023-12-14T11:10:22;81.03;;;47.50;;
55465;SDS011;41329;41.594;23.810;2023-12-14T11:12:54;90.73;;;51.17;;
55465;SDS011;41329;41.594;23.810;2023-12-14T11:15:21;93.70;;;51.60;;
55465;SDS011;41329;41.594;23.810;2023-12-14T11:23:09;98.87;;;52.33;;
55465;SDS011;41329;41.594;23.810;2023-12-14T11:25:36;71.77;;;43.47;;
55465;SDS011;41329;41.594;23.810;2023-12-14T11:28:06;62.90;;;40.43;;
55465;SDS011;41329;41.594;23.810;2023-12-14T11:30:33;66.13;;;42.27;;
55465;SDS011;41329;41.594;23.810;2023-12-14T11:33:00;63.73;;;40.37;;
55465;SDS011;41329;41.594;23.810;2023-12-14T11:35:25;61.80;;;41.70;;
55465;SDS011;41329;41.594;23.810;2023-12-14T11:37:50;75.70;;;46.13;;
55465;SDS011;41329;41.594;23.810;2023-12-14T11:40:16;55.70;;;38.53;;
55465;SDS011;41329;41.594;23.810;2023-12-14T11:42:57;52.30;;;36.63;;
55465;SDS011;41329;41.594;23.810;2023-12-14T11:45:37;58.43;;;37.97;;
55465;SDS011;41329;41.594;23.810;2023-12-14T11:48:05;50.00;;;36.38;;
55465;SDS011;41329;41.594;23.810;2023-12-14T11:50:32;42.50;;;33.30;;
55465;SDS011;41329;41.594;23.810;2023-12-14T11:53:02;45.57;;;32.57;;
55465;SDS011;41329;41.594;23.810;2023-12-14T11:55:32;52.63;;;35.80;;
55465;SDS011;41329;41.594;23.810;2023-12-14T11:57:59;42.63;;;32.25;;
55465;SDS011;41329;41.594;23.810;2023-12-14T12:00:28;50.60;;;35.03;;
55465;SDS011;41329;41.594;23.810;2023-12-14T12:03:31;46.35;;;34.50;;
55465;SDS011;41329;41.594;23.810;2023-12-14T12:05:47;44.80;;;32.37;;
55465;SDS011;41329;41.594;23.810;2023-12-14T12:08:18;39.28;;;31.77;;
55465;SDS011;41329;41.594;23.810;2023-12-14T12:10:45;43.50;;;33.47;;
55465;SDS011;41329;41.594;23.810;2023-12-14T12:13:13;48.93;;;32.60;;
55465;SDS011;41329;41.594;23.810;2023-12-14T12:15:40;49.77;;;33.97;;
55465;SDS011;41329;41.594;23.810;2023-12-14T12:18:06;45.87;;;32.47;;
55465;SDS011;41329;41.594;23.810;2023-12-14T12:20:33;54.87;;;35.20;;
55465;SDS011;41329;41.594;23.810;2023-12-14T12:22:59;56.57;;;34.17;;
55465;SDS011;41329;41.594;23.810;2023-12-14T12:25:25;47.87;;;33.13;;
55465;SDS011;41329;41.594;23.810;2023-12-14T12:27:53;53.60;;;35.13;;
55465;SDS011;41329;41.594;23.810;2023-12-14T12:30:19;50.63;;;33.10;;
55465;SDS011;41329;41.594;23.810;2023-12-14T12:32:44;41.17;;;31.03;;
55465;SDS011;41329;41.594;23.810;2023-12-14T12:35:10;43.20;;;33.93;;
55465;SDS011;41329;41.594;23.810;2023-12-14T12:37:35;28.93;;;26.03;;
55465;SDS011;41329;41.594;23.810;2023-12-14T12:40:01;29.60;;;26.67;;
55465;SDS011;41329;41.594;23.810;2023-12-14T12:42:27;28.87;;;25.50;;
55465;SDS011;41329;41.594;23.810;2023-12-14T12:44:54;32.60;;;28.40;;
55465;SDS011;41329;41.594;23.810;2023-12-14T12:47:19;32.00;;;28.50;;
55465;SDS011;41329;41.594;23.810;2023-12-14T12:49:45;35.90;;;31.07;;
55465;SDS011;41329;41.594;23.810;2023-12-14T12:52:10;37.77;;;32.90;;
55465;SDS011;41329;41.594;23.810;2023-12-14T12:54:36;39.83;;;32.80;;
55465;SDS011;41329;41.594;23.810;2023-12-14T12:57:01;52.23;;;38.83;;
55465;SDS011;41329;41.594;23.810;2023-12-14T12:59:27;54.97;;;41.93;;
55465;SDS011;41329;41.594;23.810;2023-12-14T13:01:53;53.13;;;40.17;;
55465;SDS011;41329;41.594;23.810;2023-12-14T13:04:20;65.50;;;44.83;;
55465;SDS011;41329;41.594;23.810;2023-12-14T13:06:49;52.37;;;39.30;;
55465;SDS011;41329;41.594;23.810;2023-12-14T13:09:15;44.67;;;36.27;;
55465;SDS011;41329;41.594;23.810;2023-12-14T13:11:44;50.97;;;37.33;;
55465;SDS011;41329;41.594;23.810;2023-12-14T13:14:10;55.67;;;38.43;;
55465;SDS011;41329;41.594;23.810;2023-12-14T13:16:36;53.53;;;38.03;;
55465;SDS011;41329;41.594;23.810;2023-12-14T13:19:03;55.70;;;37.37;;
55465;SDS011;41329;41.594;23.810;2023-12-14T13:21:30;64.20;;;41.80;;
55465;SDS011;41329;41.594;23.810;2023-12-14T13:23:55;71.97;;;46.57;;
55465;SDS011;41329;41.594;23.810;2023-12-14T13:26:24;75.43;;;48.77;;
55465;SDS011;41329;41.594;23.810;2023-12-14T13:28:53;84.00;;;54.60;;
55465;SDS011;41329;41.594;23.810;2023-12-14T13:31:19;99.80;;;56.73;;
55465;SDS011;41329;41.594;23.810;2023-12-14T13:33:48;108.83;;;66.63;;
55465;SDS011;41329;41.594;23.810;2023-12-14T13:36:15;122.78;;;74.00;;
55465;SDS011;41329;41.594;23.810;2023-12-14T13:38:41;112.87;;;66.47;;
55465;SDS011;41329;41.594;23.810;2023-12-14T13:41:07;83.93;;;52.97;;
55465;SDS011;41329;41.594;23.810;2023-12-14T13:43:33;60.93;;;43.83;;
55465;SDS011;41329;41.594;23.810;2023-12-14T13:45:59;51.97;;;39.80;;
55465;SDS011;41329;41.594;23.810;2023-12-14T13:48:25;48.43;;;34.80;;
55465;SDS011;41329;41.594;23.810;2023-12-14T13:50:51;38.70;;;32.23;;
55465;SDS011;41329;41.594;23.810;2023-12-14T13:53:17;39.97;;;33.47;;
55465;SDS011;41329;41.594;23.810;2023-12-14T13:55:42;46.43;;;33.70;;
55465;SDS011;41329;41.594;23.810;2023-12-14T13:58:08;36.00;;;31.60;;
55465;SDS011;41329;41.594;23.810;2023-12-14T14:00:33;44.67;;;33.73;;
55465;SDS011;41329;41.594;23.810;2023-12-14T14:03:00;43.93;;;34.70;;
55465;SDS011;41329;41.594;23.810;2023-12-14T14:05:26;44.80;;;34.20;;
55465;SDS011;41329;41.594;23.810;2023-12-14T14:07:52;43.93;;;34.27;;
55465;SDS011;41329;41.594;23.810;2023-12-14T14:10:18;66.30;;;46.00;;